Time;durP1;ratioP1;P1;durP2;ratioP2;P2;SDS_P1;SDS_P2;PMS_P1;PMS_P2;Temp;Humidity;BMP_temperature;BMP_pressure;BME280_temperature;BME280_humidity;BME280_pressure;Samples;Min_cycle;Max_cycle;Signal;HPM_P1;HPM_P2
2022/06/11 00:00:24;;;;;;;8.75;2.75;;;;;;;18.62;55.63;99882.22;10541953;28;20089;-69
2022/06/11 00:05:25;;;;;;;18.02;3.53;;;;;;;19.56;56.07;100029.53;10542568;28;20039;-67
2022/06/11 00:10:26;;;;;;;8.60;3.15;;;;;;;19.48;56.06;100035.31;10541892;28;20067;-67
2022/06/11 00:15:27;;;;;;;9.15;3.33;;;;;;;18.57;56.49;99892.84;10541399;28;20518;-67
2022/06/11 00:20:29;;;;;;;9.85;3.05;;;;;;;19.35;57.23;100018.31;10541727;28;20044;-68
2022/06/11 00:25:32;;;;;;;13.40;3.28;;;;;;;19.17;57.54;99988.78;10541509;28;20482;-67
2022/06/11 00:30:34;;;;;;;134.13;14.80;;;;;;;19.07;57.49;100008.19;10541145;28;20489;-67
2022/06/11 00:35:38;;;;;;;15.20;3.92;;;;;;;19.09;58.65;100041.09;10539013;28;20552;-67
2022/06/11 00:40:40;;;;;;;;;;;;;;;19.21;56.57;100030.34;10541313;28;20044;-67
2022/06/11 00:46:01;;;;;;;77.68;7.50;;;;;;;18.10;60.23;99914.25;10539497;28;19916;-68
2022/06/11 00:51:19;;;;;;;43.25;6.70;;;;;;;18.60;61.71;100037.63;10539009;28;20085;-67
2022/06/11 00:56:44;;;;;;;105.18;8.75;;;;;;;18.38;62.76;100012.31;10563402;28;20050;-68
2022/06/11 01:01:47;;;;;;;87.82;8.02;;;;;;;18.26;61.21;100023.00;10542159;28;20105;-67
2022/06/11 01:06:53;;;;;;;109.03;9.90;;;;;;;17.61;61.95;99931.34;10539136;28;20040;-67
2022/06/11 01:12:37;;;;;;;25.77;4.97;;;;;;;18.27;63.95;100050.72;10573174;28;20043;-67
2022/06/11 01:18:14;;;;;;;70.57;7.60;;;;;;;18.01;64.57;100023.94;10580895;28;20059;-67
2022/06/11 01:23:33;;;;;;;135.45;10.85;;;;;;;18.07;65.85;100053.63;10581187;28;20490;-67
2022/06/11 01:28:40;;;;;;;98.30;9.88;;;;;;;17.99;65.46;100058.25;10581271;28;20035;-67
2022/06/11 01:33:49;;;;;;;321.65;22.17;;;;;;;18.03;64.16;100072.88;10580340;28;20043;-67
2022/06/11 01:39:00;;;;;;;74.40;10.68;;;;;;;17.95;66.49;100056.25;10580741;28;20035;-67
2022/06/11 01:44:07;;;;;;;54.45;12.07;;;;;;;18.06;65.12;100077.00;10579241;28;20406;-67
2022/06/11 01:49:20;;;;;;;61.72;14.65;;;;;;;18.16;66.35;100082.69;10578350;28;20032;-67
2022/06/11 01:54:46;;;;;;;135.25;19.58;;;;;;;17.92;66.74;100027.13;10580346;28;20044;-67
2022/06/11 02:00:04;;;;;;;173.68;21.95;;;;;;;18.28;66.49;100081.91;10579859;28;20044;-67
2022/06/11 02:05:13;;;;;;;57.67;11.38;;;;;;;17.76;66.17;99980.97;10579302;28;20036;-67
2022/06/11 02:10:36;;;;;;;38.25;8.00;;;;;;;18.61;65.92;100081.53;10579403;28;20161;-67
2022/06/11 02:15:44;;;;;;;40.47;12.40;;;;;;;18.73;64.47;100079.75;10579722;28;20064;-67
2022/06/11 02:20:52;;;;;;;37.20;13.05;;;;;;;19.32;64.58;100079.88;10563712;28;20469;-68
2022/06/11 02:25:58;;;;;;;16.38;6.43;;;;;;;20.08;62.36;100070.09;10575685;28;20049;-68
2022/06/11 02:31:04;;;;;;;16.55;4.70;;;;;;;21.06;59.73;100086.28;10541241;28;20066;-68
2022/06/11 02:36:27;;;;;;;14.27;5.25;;;;;;;20.98;58.70;99974.94;10536097;28;20036;-67
2022/06/11 02:41:33;;;;;;;60.00;10.40;;;;;;;21.19;58.67;100026.56;10540784;28;20066;-68
2022/06/11 02:46:43;;;;;;;30.75;16.80;;;;;;;21.50;58.68;100078.41;10577233;28;20039;-68
2022/06/11 02:51:45;;;;;;;26.92;11.30;;;;;;;21.18;57.65;99943.91;10575391;28;20046;-68
2022/06/11 02:56:48;;;;;;;33.17;9.23;;;;;;;23.01;55.56;100074.44;10575708;28;20039;-68
2022/06/11 03:01:49;;;;;;;21.20;8.57;;;;;;;24.39;52.57;100083.50;10575815;28;20046;-68
2022/06/11 03:06:51;;;;;;;38.60;16.58;;;;;;;25.21;50.16;100061.97;10575019;28;20055;-68
2022/06/11 03:11:52;;;;;;;18.23;7.50;;;;;;;26.39;47.91;100084.34;10582217;28;20415;-68
2022/06/11 03:16:53;;;;;;;24.08;4.65;;;;;;;26.40;46.79;100072.34;10583141;28;20060;-68
2022/06/11 03:21:55;;;;;;;11.63;4.38;;;;;;;26.53;45.75;100084.56;10584418;27;20040;-68
2022/06/11 03:26:56;;;;;;;15.87;4.50;;;;;;;27.39;44.65;100088.63;10584028;28;20047;-68
2022/06/11 03:31:57;;;;;;;17.63;4.65;;;;;;;27.86;43.38;100064.47;10581272;28;20035;-73
2022/06/11 03:36:58;;;;;;;19.65;5.30;;;;;;;28.35;42.48;100093.38;10582582;28;20039;-68
2022/06/11 03:41:59;;;;;;;18.80;5.22;;;;;;;29.02;41.71;100101.56;10561555;28;20048;-69
2022/06/11 03:47:00;;;;;;;12.13;4.70;;;;;;;29.17;40.87;100062.19;10542803;28;20040;-68
2022/06/11 03:52:01;;;;;;;20.90;5.60;;;;;;;29.80;39.38;100051.50;10570173;28;20039;-69
2022/06/11 03:57:02;;;;;;;13.82;4.93;;;;;;;30.62;38.52;100107.38;10581552;28;20070;-68
2022/06/11 04:02:03;;;;;;;16.92;4.30;;;;;;;31.27;37.14;100097.94;10581905;28;20079;-68
2022/06/11 04:07:04;;;;;;;17.13;4.97;;;;;;;31.33;36.40;100062.97;10577854;28;20422;-69
2022/06/11 04:12:09;;;;;;;12.80;4.60;;;;;;;30.92;36.30;100062.03;10583076;28;20112;-69
2022/06/11 04:17:27;;;;;;;16.77;4.20;;;;;;;31.77;35.49;100081.31;10583781;28;20067;-71
2022/06/11 04:22:28;;;;;;;15.95;4.70;;;;;;;31.49;35.48;100099.09;10581797;28;20047;-69
2022/06/11 04:27:29;;;;;;;20.88;4.70;;;;;;;31.40;35.57;100107.25;10583747;27;20046;-68
2022/06/11 04:32:30;;;;;;;29.27;5.65;;;;;;;30.36;36.38;100002.97;10583844;28;20124;-69
2022/06/11 04:37:32;;;;;;;21.55;11.55;;;;;;;30.54;37.24;100119.06;10583051;28;20047;-68
2022/06/11 04:42:32;;;;;;;11.13;4.87;;;;;;;28.78;37.83;99888.34;10583525;28;20032;-68
2022/06/11 04:47:33;;;;;;;13.75;5.63;;;;;;;29.89;38.57;100084.47;10581766;28;20470;-68
2022/06/11 04:52:35;;;;;;;14.75;5.20;;;;;;;30.15;37.97;100078.47;10580615;28;20043;-68
2022/06/11 04:57:36;;;;;;;21.13;7.82;;;;;;;29.81;37.02;99893.50;10552551;28;20050;-68
2022/06/11 05:02:37;;;;;;;48.60;9.80;;;;;;;31.22;37.15;100092.59;10539527;28;20142;-68
2022/06/11 05:07:38;;;;;;;20.42;4.95;;;;;;;31.26;35.95;100008.53;10541765;28;20032;-68
2022/06/11 05:12:39;;;;;;;15.02;5.28;;;;;;;31.50;36.56;100059.50;10563670;28;21344;-68
2022/06/11 05:17:41;;;;;;;18.17;4.47;;;;;;;31.05;36.32;100095.19;10579913;28;20062;-68
2022/06/11 05:22:42;;;;;;;8.98;3.72;;;;;;;30.52;36.72;100093.09;10580010;28;20490;-68
2022/06/11 05:27:46;;;;;;;14.88;3.15;;;;;;;29.80;36.83;99971.31;10582054;28;20078;-72
2022/06/11 05:32:48;;;;;;;22.00;3.60;;;;;;;30.91;35.85;100089.78;10580913;28;20100;-68
2022/06/11 05:37:51;;;;;;;17.97;4.00;;;;;;;30.70;35.59;100040.84;10580118;28;20549;-68
2022/06/11 05:42:52;;;;;;;11.73;4.10;;;;;;;31.08;34.77;100061.66;10581222;28;20046;-68
2022/06/11 05:47:55;;;;;;;6.47;2.17;;;;;;;31.28;32.18;100057.59;10567145;28;20411;-79
2022/06/11 05:52:59;;;;;;;4.78;2.13;;;;;;;31.67;30.09;100078.84;10580208;28;20046;-78
2022/06/11 05:58:03;;;;;;;9.30;2.13;;;;;;;31.82;28.95;100066.63;10579220;28;20047;-76
2022/06/11 06:03:04;;;;;;;4.10;1.70;;;;;;;31.97;28.60;100052.47;10579509;28;20063;-78
2022/06/11 06:08:07;;;;;;;7.22;2.00;;;;;;;32.07;25.91;100051.41;10579177;28;20040;-76
2022/06/11 06:18:27;;;;;;;3.55;1.50;;;;;;;32.62;25.41;100055.56;10579891;28;20065;-78
2022/06/11 06:23:28;;;;;;;23.95;4.18;;;;;;;32.72;25.72;100058.78;10580430;28;20051;-77
2022/06/11 06:28:28;;;;;;;19.40;2.70;;;;;;;32.70;26.22;100032.75;10578957;28;20441;-79
2022/06/11 06:33:30;;;;;;;6.53;1.75;;;;;;;32.23;24.99;99959.13;10579383;28;20458;-76
2022/06/11 06:38:31;;;;;;;20.70;2.50;;;;;;;32.86;24.24;100052.31;10578760;28;20067;-76
2022/06/11 06:43:32;;;;;;;17.15;2.00;;;;;;;33.07;24.09;100067.06;10582190;28;20039;-77
2022/06/11 06:48:33;;;;;;;3.72;1.40;;;;;;;33.10;23.94;100063.66;10588158;28;20035;-77
2022/06/11 06:53:37;;;;;;;10.73;1.80;;;;;;;33.17;24.18;100063.16;10587964;28;20044;-77
2022/06/11 06:58:38;;;;;;;16.02;2.65;;;;;;;33.06;24.81;100050.88;10587336;28;20032;-77
2022/06/11 07:03:41;;;;;;;10.15;1.83;;;;;;;33.02;24.93;100036.16;10585958;28;20066;-76
2022/06/11 07:08:42;;;;;;;8.55;2.08;;;;;;;32.43;24.52;99943.94;10586585;27;20063;-76
2022/06/11 07:13:42;;;;;;;8.77;2.72;;;;;;;32.63;24.21;99952.66;10585932;28;20067;-78
2022/06/11 07:18:52;;;;;;;9.23;1.63;;;;;;;33.18;24.48;100021.56;10584347;28;20086;-77
2022/06/11 07:23:57;;;;;;;6.32;1.67;;;;;;;33.44;23.55;100050.94;10585734;28;20039;-79
2022/06/11 07:29:05;;;;;;;6.50;1.80;;;;;;;32.96;24.32;99961.19;10585445;28;20126;-84
2022/06/11 07:34:06;;;;;;;11.52;2.13;;;;;;;33.66;24.18;100035.38;10585721;28;20032;-77
2022/06/11 07:39:07;;;;;;;6.22;1.83;;;;;;;33.69;23.21;100031.94;10585478;28;20039;-77
2022/06/11 07:44:08;;;;;;;8.95;1.80;;;;;;;33.92;23.32;100033.28;10585361;28;20514;-77
2022/06/11 07:49:09;;;;;;;3.70;1.35;;;;;;;32.89;24.03;99897.63;10555155;28;20039;-79
2022/06/11 07:54:10;;;;;;;20.73;3.42;;;;;;;33.36;24.39;100014.06;10543146;28;20154;-75
2022/06/11 07:59:11;;;;;;;5.45;1.73;;;;;;;33.83;23.66;100024.25;10542816;28;20130;-78
2022/06/11 08:04:12;;;;;;;6.28;1.70;;;;;;;33.64;22.80;99961.31;10584100;28;20050;-80
2022/06/11 08:09:13;;;;;;;15.93;1.90;;;;;;;33.82;23.03;100011.63;10583809;28;20039;-83
2022/06/11 08:14:14;;;;;;;6.53;1.60;;;;;;;33.72;22.27;99990.78;10583697;28;20042;-77
2022/06/11 08:19:15;;;;;;;3.10;1.20;;;;;;;33.90;21.80;99974.97;10584490;27;20104;-77
2022/06/11 08:24:15;;;;;;;9.77;2.10;;;;;;;34.16;22.54;100004.31;10551631;28;20474;-85
2022/06/11 08:29:16;;;;;;;4.82;1.65;;;;;;;33.96;21.49;99984.66;10584688;28;20052;-77
2022/06/11 08:34:17;;;;;;;4.65;1.45;;;;;;;33.46;22.43;99904.69;10572087;28;20127;-81
2022/06/11 08:39:18;;;;;;;3.38;1.40;;;;;;;33.89;21.81;100000.88;10539787;28;20284;-81
2022/06/11 08:44:19;;;;;;;12.10;2.05;;;;;;;34.19;22.08;100001.69;10541239;28;20122;-82
2022/06/11 08:49:32;;;;;;;14.45;2.20;;;;;;;34.34;21.89;100005.00;10540125;28;20069;-78
2022/06/11 08:54:36;;;;;;;37.97;4.07;;;;;;;34.19;22.10;99976.06;10540469;28;20483;-77
2022/06/11 09:00:02;;;;;;;10.40;1.80;;;;;;;32.72;22.68;99866.25;10564382;28;20047;-77
2022/06/11 09:05:20;;;;;;;6.30;1.80;;;;;;;32.88;22.85;99981.28;10581742;28;20036;-79
2022/06/11 09:10:50;;;;;;;11.68;2.85;;;;;;;32.03;22.84;99839.66;10581147;28;20122;-80
2022/06/11 09:16:09;;;;;;;7.00;2.10;;;;;;;33.46;22.69;99970.78;10581374;28;20462;-80
2022/06/11 09:21:28;;;;;;;3.53;1.65;;;;;;;33.04;22.06;99866.03;10581037;28;20040;-78
2022/06/11 09:26:29;;;;;;;11.93;2.25;;;;;;;32.50;22.70;99853.53;10581151;28;20043;-76
2022/06/11 09:31:30;;;;;;;23.15;2.22;;;;;;;32.82;22.78;99936.63;10581051;28;20035;-78
2022/06/11 09:36:37;;;;;;;7.93;1.75;;;;;;;31.63;23.54;99806.03;10580838;28;20044;-80
2022/06/11 09:41:51;;;;;;;5.82;1.65;;;;;;;32.31;23.31;99953.94;10580924;28;20040;-76
2022/06/11 09:47:10;;;;;;;10.93;1.95;;;;;;;32.65;23.00;99920.16;10580718;28;20140;-79
2022/06/11 09:52:20;;;;;;;5.05;1.50;;;;;;;33.18;21.41;99925.22;10580507;28;20039;-82
2022/06/11 09:57:29;;;;;;;4.85;1.70;;;;;;;33.79;21.76;99935.16;10580850;28;20044;-77
2022/06/11 10:08:15;;;;;;;30.98;4.68;;;;;;;33.38;21.76;99931.91;10573744;28;20040;-76
2022/06/11 10:13:34;;;;;;;13.63;2.13;;;;;;;33.61;21.79;99935.25;10574852;28;20043;-80
2022/06/11 10:18:37;;;;;;;11.13;2.38;;;;;;;33.91;22.03;99920.66;10571938;28;20111;-79
2022/06/11 10:23:47;;;;;;;12.63;2.55;;;;;;;34.25;22.30;99912.16;10575977;28;20115;-76
2022/06/11 10:29:20;;;;;;;16.95;2.47;;;;;;;34.76;20.26;99932.13;10563569;28;20075;-82
2022/06/11 10:34:24;;;;;;;6.15;2.08;;;;;;;34.60;20.69;99908.28;10564618;28;20574;-78
2022/06/11 10:39:32;;;;;;;7.07;1.65;;;;;;;34.97;20.57;99911.91;10565932;28;20456;-79
2022/06/11 10:44:40;;;;;;;24.05;2.60;;;;;;;34.75;20.94;99907.63;10545351;28;20043;-84
2022/06/11 10:49:41;;;;;;;10.93;1.98;;;;;;;33.98;21.42;99899.66;10562630;28;20040;-81
2022/06/11 10:54:42;;;;;;;11.07;1.90;;;;;;;33.53;21.61;99897.53;10556713;28;20486;-79
2022/06/11 10:59:49;;;;;;;4.22;1.90;;;;;;;33.66;21.38;99870.91;10548814;28;20101;-78
2022/06/11 11:05:01;;;;;;;6.05;1.73;;;;;;;34.02;23.44;99902.59;10550781;28;20047;-81
2022/06/11 11:10:05;;;;;;;7.80;1.60;;;;;;;33.59;22.85;99874.16;10553280;28;20036;-80
2022/06/11 11:15:09;;;;;;;8.85;1.88;;;;;;;34.25;21.45;99887.34;10550972;28;20123;-78
2022/06/11 11:20:35;;;;;;;7.90;1.77;;;;;;;34.24;21.56;99885.72;10552322;28;20047;-77
2022/06/11 11:25:47;;;;;;;1.85;1.30;;;;;;;34.74;20.85;99893.03;10541330;28;20072;-77
2022/06/11 11:30:57;;;;;;;2.58;1.25;;;;;;;33.91;20.15;99794.69;10561367;28;20040;-77
2022/06/11 11:36:09;;;;;;;17.85;2.03;;;;;;;34.47;21.57;99877.06;10557142;28;20040;-76
2022/06/11 11:41:25;;;;;;;8.95;2.03;;;;;;;34.11;20.53;99872.22;10573641;28;20047;-76
2022/06/11 11:46:37;;;;;;;13.80;1.90;;;;;;;33.63;21.79;99872.38;10585880;28;20074;-76
2022/06/11 11:51:40;;;;;;;13.38;2.08;;;;;;;32.29;21.61;99707.72;10577652;28;20036;-76
2022/06/11 11:57:05;;;;;;;8.45;2.00;;;;;;;33.04;22.48;99855.81;10582721;28;20043;-76
2022/06/11 12:02:26;;;;;;;23.40;2.90;;;;;;;32.67;24.61;99847.19;10573107;28;20160;-76
2022/06/11 12:10:17;;;;;;;7.88;2.50;;;;;;;31.50;22.72;99738.34;10458190;28;20434;-74
2022/06/11 12:15:20;;;;;;;4.78;2.20;;;;;;;32.85;21.66;99834.19;10463894;28;20041;-74
2022/06/11 12:20:24;;;;;;;8.80;1.80;;;;;;;33.56;21.38;99836.28;10448405;28;20041;-73
2022/06/11 12:25:45;;;;;;;10.77;1.80;;;;;;;34.12;20.64;99840.75;10448485;28;20065;-74
2022/06/11 12:30:48;;;;;;;11.20;2.10;;;;;;;34.49;20.83;99823.19;10448292;28;20098;-74
2022/06/11 12:35:58;;;;;;;7.78;1.48;;;;;;;34.78;21.61;99820.63;10463641;28;20045;-74
2022/06/11 12:41:07;;;;;;;7.20;2.00;;;;;;;34.95;21.41;99815.69;10459264;28;20049;-75
2022/06/11 12:46:23;;;;;;;5.80;1.55;;;;;;;34.97;19.56;99826.38;10445264;28;20107;-75
2022/06/11 12:52:06;;;;;;;6.30;2.72;;;;;;;34.32;19.47;99707.56;10434668;28;20041;-75
2022/06/11 12:57:25;;;;;;;9.15;1.90;;;;;;;34.78;20.22;99796.59;10430123;28;20127;-74
2022/06/11 13:02:38;;;;;;;17.30;2.10;;;;;;;34.23;20.14;99815.19;10426427;28;20044;-75
2022/06/11 13:07:58;;;;;;;3.05;1.63;;;;;;;33.56;20.19;99828.03;10427462;28;20065;-75
2022/06/11 13:13:05;;;;;;;29.25;2.90;;;;;;;33.12;21.92;99815.66;10446365;28;20420;-75
2022/06/11 13:18:37;;;;;;;17.42;2.33;;;;;;;32.85;21.84;99775.63;10437075;28;20404;-75
2022/06/11 13:23:40;;;;;;;;;;;;;;;33.66;21.62;99807.56;10409667;28;20045;-75
2022/06/11 13:29:18;;;;;;;13.13;1.73;;;;;;;33.79;21.22;99800.16;10415834;28;19924;-75
2022/06/11 13:34:24;;;;;;;3.45;1.30;;;;;;;34.15;19.85;99787.72;10407579;28;20042;-74
2022/06/11 13:39:54;;;;;;;4.38;1.67;;;;;;;34.44;19.23;99790.31;10386703;28;20046;-74
2022/06/11 13:45:11;;;;;;;5.75;1.55;;;;;;;33.89;19.40;99688.72;10376528;28;20111;-74
2022/06/11 13:50:42;;;;;;;21.33;2.97;;;;;;;34.03;20.55;99695.56;10382153;28;20041;-75
2022/06/11 13:55:45;;;;;;;4.43;1.70;;;;;;;33.91;19.97;99686.44;10416052;28;20492;-74
2022/06/11 14:01:10;;;;;;;50.80;3.92;;;;;;;34.60;19.89;99781.41;10414354;28;20396;-75
2022/06/11 14:06:13;;;;;;;8.98;1.63;;;;;;;34.56;19.01;99769.44;10408228;28;20060;-75
2022/06/11 14:11:36;;;;;;;6.20;1.90;;;;;;;34.03;19.31;99681.78;10413334;28;20087;-75
2022/06/11 14:16:42;;;;;;;9.13;2.10;;;;;;;34.51;19.54;99767.69;10411898;28;20030;-75
2022/06/11 14:21:53;;;;;;;15.80;2.50;;;;;;;34.54;19.57;99765.06;10407797;28;20197;-75
2022/06/11 14:26:55;;;;;;;16.35;1.90;;;;;;;34.45;19.58;99782.84;10390074;28;20049;-76
2022/06/11 14:32:26;;;;;;;15.23;2.50;;;;;;;34.42;20.92;99770.53;10415518;28;20045;-74
2022/06/11 14:37:29;;;;;;;23.85;2.33;;;;;;;34.13;20.42;99756.91;10414735;28;20045;-74
2022/06/11 14:42:56;;;;;;;18.63;2.25;;;;;;;34.31;19.62;99770.19;10400931;28;20517;-75
2022/06/11 14:47:59;;;;;;;18.42;2.60;;;;;;;33.95;20.75;99757.06;10430849;28;20044;-75
2022/06/11 14:53:09;;;;;;;10.27;1.92;;;;;;;34.01;20.16;99765.91;10430838;28;20444;-75
2022/06/11 14:58:46;;;;;;;11.40;2.00;;;;;;;33.79;19.94;99745.88;10415504;28;20401;-75
2022/06/11 15:04:01;;;;;;;11.75;2.13;;;;;;;33.83;20.49;99781.81;10413365;28;20053;-75
2022/06/11 15:09:23;;;;;;;18.95;2.78;;;;;;;33.71;20.29;99784.50;10412951;28;20065;-75
2022/06/11 15:14:43;;;;;;;;;;;;;;;33.84;20.21;99783.44;10415053;28;20045;-75
2022/06/11 15:19:52;;;;;;;37.88;3.63;;;;;;;33.50;21.34;99784.47;10414320;28;19921;-75
2022/06/11 15:24:59;;;;;;;71.70;4.80;;;;;;;33.33;21.16;99785.41;10413889;28;20037;-75
2022/06/11 15:30:33;;;;;;;28.98;2.65;;;;;;;33.22;21.78;99775.94;10414357;28;20489;-76
2022/06/11 15:35:40;;;;;;;11.95;1.73;;;;;;;32.44;21.63;99713.81;10422591;28;20045;-75
2022/06/11 15:40:45;;;;;;;14.25;1.98;;;;;;;32.64;21.68;99765.34;10413108;28;20038;-75
2022/06/11 15:45:53;;;;;;;24.02;3.00;;;;;;;32.31;22.94;99756.03;10391351;28;20069;-74
2022/06/11 15:51:19;;;;;;;10.80;1.70;;;;;;;32.17;22.58;99778.25;10413636;28;20045;-74
2022/06/11 15:56:28;;;;;;;22.70;2.20;;;;;;;31.60;23.13;99776.47;10412148;28;20568;-75
2022/06/11 16:01:28;;;;;;;15.23;2.00;;;;;;;30.76;22.80;99687.84;10413324;28;20132;-75
2022/06/11 16:06:31;;;;;;;27.88;2.63;;;;;;;31.01;23.19;99778.75;10414047;28;20475;-75
2022/06/11 16:11:51;;;;;;;16.92;3.08;;;;;;;30.05;23.74;99662.38;10413465;28;20052;-75
2022/06/11 16:17:02;;;;;;;17.75;2.72;;;;;;;30.30;24.35;99754.88;10413073;28;20049;-75
2022/06/11 16:22:18;;;;;;;28.25;3.90;;;;;;;29.75;25.89;99706.66;10425469;28;20041;-75
2022/06/11 16:27:23;;;;;;;27.75;2.97;;;;;;;29.58;26.72;99775.72;10412150;28;20049;-77
2022/06/11 16:32:25;;;;;;;113.63;13.02;;;;;;;29.16;27.88;99763.25;10412742;28;20471;-77
2022/06/11 16:37:35;;;;;;;64.38;6.13;;;;;;;28.52;28.96;99713.13;10412045;28;20091;-76
2022/06/11 16:42:47;;;;;;;39.63;4.25;;;;;;;28.23;28.63;99736.00;10412040;28;20042;-77
2022/06/11 16:47:58;;;;;;;140.45;10.18;;;;;;;28.07;30.25;99757.31;10400726;28;20041;-76
2022/06/11 16:58:37;;;;;;;25.15;3.70;;;;;;;27.59;29.78;99757.50;10387478;28;20099;-76
2022/06/11 17:04:06;;;;;;;32.80;5.15;;;;;;;26.57;29.89;99649.78;10409095;28;20037;-79
2022/06/11 17:09:36;;;;;;;10.30;2.65;;;;;;;27.16;29.14;99790.25;10377768;28;20050;-77
2022/06/11 17:14:37;;;;;;;16.00;3.17;;;;;;;26.94;29.21;99762.69;10377948;28;20046;-76
2022/06/11 17:19:38;;;;;;;12.77;2.00;;;;;;;26.57;29.42;99745.13;10378357;28;20108;-76
2022/06/11 17:24:40;;;;;;;3.78;1.55;;;;;;;26.30;29.69;99721.13;10377708;28;20505;-76
2022/06/11 17:29:43;;;;;;;10.73;1.67;;;;;;;26.66;29.92;99797.06;10378182;28;20046;-79
2022/06/11 17:34:44;;;;;;;15.93;3.10;;;;;;;26.52;30.22;99791.47;10377769;28;20559;-77
2022/06/11 17:39:45;;;;;;;6.50;1.85;;;;;;;26.45;30.17;99796.44;10377552;28;20300;-75
2022/06/11 17:44:45;;;;;;;5.15;1.60;;;;;;;26.06;30.12;99775.53;10377389;28;20548;-76
2022/06/11 17:49:48;;;;;;;5.82;1.67;;;;;;;25.88;30.99;99769.66;10376730;28;20038;-76
2022/06/11 17:54:50;;;;;;;5.30;1.67;;;;;;;25.91;31.13;99799.03;10376998;28;20069;-77
2022/06/11 17:59:51;;;;;;;3.97;1.60;;;;;;;25.61;31.59;99769.28;10375011;28;20128;-78
2022/06/11 18:04:52;;;;;;;11.43;2.00;;;;;;;25.64;31.75;99812.25;10386788;28;20041;-77
2022/06/11 18:09:53;;;;;;;6.55;1.67;;;;;;;25.66;31.96;99823.63;10375496;28;20061;-78
2022/06/11 18:14:54;;;;;;;6.65;1.55;;;;;;;25.55;32.55;99831.06;10375778;28;20041;-77
2022/06/11 18:19:55;;;;;;;5.45;1.60;;;;;;;25.29;32.52;99805.88;10375343;28;20061;-75
2022/06/11 18:30:18;;;;;;;5.97;1.38;;;;;;;24.57;33.26;99754.44;10375546;28;20046;-77
2022/06/11 18:35:20;;;;;;;8.57;1.77;;;;;;;24.86;33.64;99816.31;10376007;28;20041;-77
2022/06/11 18:40:24;;;;;;;13.63;2.17;;;;;;;24.78;34.35;99823.13;10373245;28;20065;-78
2022/06/11 18:45:25;;;;;;;7.70;1.30;;;;;;;24.72;34.21;99834.28;10391763;28;20045;-80
2022/06/11 18:50:28;;;;;;;3.80;1.42;;;;;;;24.64;34.45;99834.81;10415621;28;20409;-79
2022/06/11 18:55:29;;;;;;;5.27;1.30;;;;;;;24.59;34.35;99827.50;10414580;28;20045;-80
2022/06/11 19:00:30;;;;;;;5.95;1.20;;;;;;;24.41;34.89;99828.84;10415421;28;20128;-77
2022/06/11 19:05:31;;;;;;;8.18;1.52;;;;;;;24.34;35.16;99814.72;10414969;28;20068;-79
2022/06/11 19:10:38;;;;;;;5.65;1.50;;;;;;;24.25;35.44;99819.88;10415199;28;20062;-78
2022/06/11 19:15:40;;;;;;;3.67;1.30;;;;;;;24.11;35.54;99821.47;10414291;28;20045;-78
2022/06/11 19:20:43;;;;;;;5.43;1.50;;;;;;;23.32;35.84;99697.97;10414670;28;20055;-78
2022/06/11 19:25:47;;;;;;;4.43;1.35;;;;;;;23.89;36.43;99810.88;10414317;28;20087;-80
2022/06/11 19:30:49;;;;;;;7.13;1.65;;;;;;;23.08;36.72;99709.28;10415021;28;20451;-77
2022/06/11 19:35:54;;;;;;;3.65;1.55;;;;;;;23.62;37.07;99816.50;10413982;28;20080;-77
2022/06/11 19:40:57;;;;;;;10.85;1.63;;;;;;;23.44;36.98;99796.13;10413735;28;20037;-77
2022/06/11 19:45:59;;;;;;;2.80;1.30;;;;;;;23.03;37.16;99744.47;10413746;28;20092;-77
2022/06/11 19:51:02;;;;;;;2.40;1.10;;;;;;;23.15;37.10;99772.16;10413166;28;20065;-80
2022/06/11 19:56:04;;;;;;;4.90;1.20;;;;;;;22.45;37.38;99670.53;10413299;28;20140;-76
2022/06/11 20:01:07;;;;;;;6.50;1.60;;;;;;;23.21;37.17;99789.25;10412681;28;20052;-78
2022/06/11 20:06:08;;;;;;;2.58;1.17;;;;;;;23.14;37.30;99792.19;10412321;28;20096;-79
2022/06/11 20:11:09;;;;;;;3.25;1.40;;;;;;;22.93;37.86;99776.91;10412734;28;20048;-77
2022/06/11 20:16:11;;;;;;;6.65;1.35;;;;;;;22.31;37.82;99686.41;10412399;28;20566;-77
2022/06/11 20:21:13;;;;;;;11.68;1.77;;;;;;;22.94;37.71;99803.75;10412756;28;20116;-77
2022/06/11 20:26:13;;;;;;;4.65;1.30;;;;;;;22.78;38.56;99791.19;10412612;28;20378;-77
2022/06/11 20:31:15;;;;;;;6.40;1.50;;;;;;;22.65;38.57;99787.03;10420227;28;20045;-77
2022/06/11 20:36:16;;;;;;;5.32;1.45;;;;;;;22.64;38.55;99798.94;10421452;28;20041;-78
2022/06/11 20:41:18;;;;;;;7.45;1.98;;;;;;;22.43;39.22;99759.28;10419237;28;20049;-76
2022/06/11 20:46:19;;;;;;;5.97;1.60;;;;;;;22.26;38.78;99776.50;10421072;28;20370;-77
2022/06/11 20:51:33;;;;;;;10.98;1.92;;;;;;;22.06;40.31;99770.88;10420397;28;20037;-78
2022/06/11 20:56:34;;;;;;;6.65;1.40;;;;;;;21.93;40.24;99776.69;10420699;28;20045;-77
2022/06/11 21:01:35;;;;;;;8.23;1.73;;;;;;;21.58;40.43;99754.47;10419472;28;20111;-77
2022/06/11 21:06:36;;;;;;;6.13;1.50;;;;;;;21.77;40.64;99790.06;10419515;28;20083;-77
2022/06/11 21:11:52;;;;;;;12.07;2.13;;;;;;;20.86;40.79;99657.50;10419887;28;20037;-78
2022/06/11 21:16:54;;;;;;;7.55;1.70;;;;;;;21.19;41.75;99732.16;10418708;28;20043;-77
2022/06/11 21:22:17;;;;;;;9.65;1.80;;;;;;;19.75;43.11;99535.22;10412180;28;20045;-77
2022/06/11 21:27:19;;;;;;;;;;;;;;;21.50;41.28;99781.97;10418605;28;20073;-78
2022/06/11 21:32:21;;;;;;;8.70;1.73;;;;;;;21.30;42.33;99779.84;10419419;28;20339;-77
2022/06/11 21:37:22;;;;;;;3.60;1.58;;;;;;;20.73;42.32;99672.19;10419387;28;20124;-77
2022/06/11 21:42:23;;;;;;;7.38;1.90;;;;;;;21.29;42.43;99767.38;10417306;28;20484;-76
2022/06/11 21:47:24;;;;;;;10.00;1.88;;;;;;;20.92;42.24;99711.31;10417984;28;20055;-77
2022/06/11 21:52:28;;;;;;;5.55;1.60;;;;;;;20.35;43.50;99630.69;10417455;28;20044;-77
2022/06/11 21:57:29;;;;;;;11.57;2.13;;;;;;;21.05;43.78;99756.00;10418002;28;20128;-77
2022/06/11 22:02:30;;;;;;;5.90;1.83;;;;;;;20.16;43.98;99642.81;10416798;28;20124;-78
2022/06/11 22:07:31;;;;;;;5.05;1.65;;;;;;;19.86;44.97;99630.50;10417471;28;20406;-78
2022/06/11 22:12:32;;;;;;;5.50;1.90;;;;;;;19.98;45.46;99668.16;10417192;28;20136;-78
2022/06/11 22:17:33;;;;;;;5.65;1.67;;;;;;;19.28;45.02;99586.72;10415882;28;20192;-78
2022/06/11 22:22:34;;;;;;;6.47;2.17;;;;;;;20.26;44.62;99735.47;10416491;28;20412;-78
2022/06/11 22:27:35;;;;;;;6.53;1.95;;;;;;;20.15;44.58;99739.06;10417369;28;20045;-77
2022/06/11 22:32:39;;;;;;;6.30;1.92;;;;;;;20.02;46.12;99753.69;10416047;28;20042;-78
2022/06/11 22:37:40;;;;;;;5.05;1.88;;;;;;;19.84;45.91;99732.38;10416273;28;20047;-77
2022/06/11 22:42:42;;;;;;;8.38;2.03;;;;;;;19.50;46.60;99667.63;10415689;28;20037;-78
2022/06/11 22:47:43;;;;;;;14.07;2.28;;;;;;;19.57;47.15;99714.09;10415822;28;20049;-78
2022/06/11 22:52:45;;;;;;;9.43;1.67;;;;;;;19.33;47.41;99736.81;10414791;28;20045;-78
2022/06/11 22:57:46;;;;;;;5.05;1.92;;;;;;;18.42;47.71;99588.56;10416061;28;20041;-77
2022/06/11 23:02:47;;;;;;;10.43;2.05;;;;;;;18.35;48.04;99604.03;10430967;28;20053;-77
2022/06/11 23:07:48;;;;;;;6.15;2.40;;;;;;;18.93;49.02;99713.41;10414424;28;20100;-77
2022/06/11 23:12:49;;;;;;;9.02;2.22;;;;;;;17.80;49.25;99567.66;10414637;28;20065;-78
2022/06/11 23:17:50;;;;;;;8.35;2.00;;;;;;;18.62;49.69;99712.72;10414902;28;20037;-78
2022/06/11 23:22:51;;;;;;;6.18;2.00;;;;;;;17.84;50.30;99597.53;10414593;28;20037;-77
2022/06/11 23:27:52;;;;;;;10.45;2.30;;;;;;;17.64;50.61;99582.53;10414755;28;20052;-78
2022/06/11 23:33:19;;;;;;;18.90;2.67;;;;;;;18.55;51.85;99708.56;10414052;28;20037;-76
2022/06/11 23:38:21;;;;;;;4.57;2.03;;;;;;;18.25;51.36;99683.44;10413233;28;20053;-77
2022/06/11 23:43:22;;;;;;;13.10;2.65;;;;;;;17.37;52.13;99567.94;10413818;28;20060;-78
2022/06/11 23:48:36;;;;;;;7.97;2.47;;;;;;;17.95;53.30;99669.28;10413755;28;20053;-77
2022/06/11 23:53:37;;;;;;;;;;;;;;;18.33;50.78;99711.00;10414532;28;20049;-78
2022/06/11 23:58:39;;;;;;;7.07;2.15;;;;;;;17.85;52.51;99709.31;10412925;28;19913;-78
